sensor_id;sensor_type;location;lat;lon;timestamp;P1;durP1;ratioP1;P2;durP2;ratioP2
24517;SDS011;12678;51.336;12.406;2023-08-20T00:00:19;9.82;;;4.47;;
24517;SDS011;12678;51.336;12.406;2023-08-20T00:02:46;7.20;;;4.35;;
24517;SDS011;12678;51.336;12.406;2023-08-20T00:05:12;8.70;;;4.30;;
24517;SDS011;12678;51.336;12.406;2023-08-20T00:07:39;7.75;;;3.72;;
24517;SDS011;12678;51.336;12.406;2023-08-20T00:10:05;7.88;;;4.57;;
24517;SDS011;12678;51.336;12.406;2023-08-20T00:12:31;10.45;;;4.63;;
24517;SDS011;12678;51.336;12.406;2023-08-20T00:15:00;5.55;;;4.20;;
24517;SDS011;12678;51.336;12.406;2023-08-20T00:17:31;7.03;;;4.50;;
24517;SDS011;12678;51.336;12.406;2023-08-20T00:20:01;6.68;;;4.53;;
24517;SDS011;12678;51.336;12.406;2023-08-20T00:22:38;11.50;;;4.50;;
24517;SDS011;12678;51.336;12.406;2023-08-20T00:25:05;5.80;;;4.50;;
24517;SDS011;12678;51.336;12.406;2023-08-20T00:27:31;6.38;;;4.43;;
24517;SDS011;12678;51.336;12.406;2023-08-20T00:29:57;6.97;;;5.25;;
24517;SDS011;12678;51.336;12.406;2023-08-20T00:32:23;5.68;;;4.05;;
24517;SDS011;12678;51.336;12.406;2023-08-20T00:34:48;7.07;;;4.32;;
24517;SDS011;12678;51.336;12.406;2023-08-20T00:37:14;13.23;;;4.63;;
24517;SDS011;12678;51.336;12.406;2023-08-20T00:39:40;10.02;;;4.47;;
24517;SDS011;12678;51.336;12.406;2023-08-20T00:42:05;8.55;;;4.78;;
24517;SDS011;12678;51.336;12.406;2023-08-20T00:44:32;13.45;;;5.03;;
24517;SDS011;12678;51.336;12.406;2023-08-20T00:46:58;6.65;;;4.47;;
24517;SDS011;12678;51.336;12.406;2023-08-20T00:49:25;14.20;;;4.40;;
24517;SDS011;12678;51.336;12.406;2023-08-20T00:51:51;8.07;;;4.53;;
24517;SDS011;12678;51.336;12.406;2023-08-20T00:54:18;11.48;;;5.25;;
24517;SDS011;12678;51.336;12.406;2023-08-20T00:56:44;9.55;;;4.40;;
24517;SDS011;12678;51.336;12.406;2023-08-20T00:59:10;9.73;;;5.28;;
24517;SDS011;12678;51.336;12.406;2023-08-20T01:01:36;11.05;;;4.45;;
24517;SDS011;12678;51.336;12.406;2023-08-20T01:04:02;7.70;;;4.20;;
24517;SDS011;12678;51.336;12.406;2023-08-20T01:12:14;11.07;;;4.65;;
24517;SDS011;12678;51.336;12.406;2023-08-20T01:14:41;10.27;;;5.03;;
24517;SDS011;12678;51.336;12.406;2023-08-20T01:17:06;7.00;;;4.25;;
24517;SDS011;12678;51.336;12.406;2023-08-20T01:19:32;8.70;;;4.90;;
24517;SDS011;12678;51.336;12.406;2023-08-20T01:24:44;11.82;;;4.63;;
24517;SDS011;12678;51.336;12.406;2023-08-20T01:27:35;6.40;;;4.20;;
24517;SDS011;12678;51.336;12.406;2023-08-20T01:30:22;5.50;;;4.18;;
24517;SDS011;12678;51.336;12.406;2023-08-20T01:32:50;11.85;;;4.45;;
24517;SDS011;12678;51.336;12.406;2023-08-20T01:35:17;10.02;;;4.38;;
24517;SDS011;12678;51.336;12.406;2023-08-20T01:37:43;11.40;;;4.25;;
24517;SDS011;12678;51.336;12.406;2023-08-20T01:40:09;5.95;;;4.47;;
24517;SDS011;12678;51.336;12.406;2023-08-20T01:42:38;8.77;;;5.03;;
24517;SDS011;12678;51.336;12.406;2023-08-20T01:45:05;11.90;;;6.30;;
24517;SDS011;12678;51.336;12.406;2023-08-20T01:47:31;10.00;;;6.03;;
24517;SDS011;12678;51.336;12.406;2023-08-20T01:50:00;9.50;;;6.15;;
24517;SDS011;12678;51.336;12.406;2023-08-20T01:52:26;8.20;;;6.15;;
24517;SDS011;12678;51.336;12.406;2023-08-20T01:54:52;12.38;;;6.60;;
24517;SDS011;12678;51.336;12.406;2023-08-20T01:57:18;17.48;;;7.93;;
24517;SDS011;12678;51.336;12.406;2023-08-20T01:59:43;10.95;;;6.70;;
24517;SDS011;12678;51.336;12.406;2023-08-20T02:02:09;10.88;;;7.18;;
24517;SDS011;12678;51.336;12.406;2023-08-20T02:04:35;12.65;;;6.50;;
24517;SDS011;12678;51.336;12.406;2023-08-20T02:07:00;8.93;;;6.63;;
24517;SDS011;12678;51.336;12.406;2023-08-20T02:09:26;21.10;;;7.03;;
24517;SDS011;12678;51.336;12.406;2023-08-20T02:11:51;12.18;;;6.38;;
24517;SDS011;12678;51.336;12.406;2023-08-20T02:14:17;12.13;;;7.32;;
24517;SDS011;12678;51.336;12.406;2023-08-20T02:16:43;10.57;;;6.68;;
24517;SDS011;12678;51.336;12.406;2023-08-20T02:19:09;15.18;;;9.00;;
24517;SDS011;12678;51.336;12.406;2023-08-20T02:21:35;12.88;;;7.72;;
24517;SDS011;12678;51.336;12.406;2023-08-20T02:24:00;14.25;;;8.00;;
24517;SDS011;12678;51.336;12.406;2023-08-20T02:26:26;19.08;;;8.70;;
24517;SDS011;12678;51.336;12.406;2023-08-20T02:28:52;13.63;;;8.05;;
24517;SDS011;12678;51.336;12.406;2023-08-20T02:31:17;11.07;;;7.25;;
24517;SDS011;12678;51.336;12.406;2023-08-20T02:33:43;14.23;;;8.23;;
24517;SDS011;12678;51.336;12.406;2023-08-20T02:36:08;12.18;;;8.25;;
24517;SDS011;12678;51.336;12.406;2023-08-20T02:38:34;14.05;;;7.90;;
24517;SDS011;12678;51.336;12.406;2023-08-20T02:41:00;16.40;;;8.95;;
24517;SDS011;12678;51.336;12.406;2023-08-20T02:43:28;13.82;;;8.38;;
24517;SDS011;12678;51.336;12.406;2023-08-20T02:45:53;12.88;;;8.57;;
24517;SDS011;12678;51.336;12.406;2023-08-20T02:48:19;13.05;;;8.40;;
24517;SDS011;12678;51.336;12.406;2023-08-20T02:50:45;16.90;;;9.27;;
24517;SDS011;12678;51.336;12.406;2023-08-20T02:53:11;15.88;;;10.25;;
24517;SDS011;12678;51.336;12.406;2023-08-20T02:55:36;15.35;;;8.80;;
24517;SDS011;12678;51.336;12.406;2023-08-20T02:58:02;18.40;;;9.82;;
24517;SDS011;12678;51.336;12.406;2023-08-20T03:00:32;14.93;;;8.88;;
24517;SDS011;12678;51.336;12.406;2023-08-20T03:02:58;17.48;;;9.27;;
24517;SDS011;12678;51.336;12.406;2023-08-20T03:05:23;18.95;;;9.68;;
24517;SDS011;12678;51.336;12.406;2023-08-20T03:07:49;10.65;;;8.38;;
24517;SDS011;12678;51.336;12.406;2023-08-20T03:10:15;19.88;;;9.70;;
24517;SDS011;12678;51.336;12.406;2023-08-20T03:12:40;13.55;;;9.23;;
24517;SDS011;12678;51.336;12.406;2023-08-20T03:15:06;13.50;;;8.38;;
24517;SDS011;12678;51.336;12.406;2023-08-20T03:17:32;19.38;;;9.68;;
24517;SDS011;12678;51.336;12.406;2023-08-20T03:19:58;14.38;;;9.45;;
24517;SDS011;12678;51.336;12.406;2023-08-20T03:22:25;15.68;;;9.25;;
24517;SDS011;12678;51.336;12.406;2023-08-20T03:24:51;18.08;;;8.52;;
24517;SDS011;12678;51.336;12.406;2023-08-20T03:27:18;14.15;;;9.50;;
24517;SDS011;12678;51.336;12.406;2023-08-20T03:29:44;16.48;;;9.20;;
24517;SDS011;12678;51.336;12.406;2023-08-20T03:32:10;19.85;;;10.90;;
24517;SDS011;12678;51.336;12.406;2023-08-20T03:34:36;18.73;;;9.07;;
24517;SDS011;12678;51.336;12.406;2023-08-20T03:37:02;15.80;;;9.57;;
24517;SDS011;12678;51.336;12.406;2023-08-20T03:39:28;14.93;;;9.00;;
24517;SDS011;12678;51.336;12.406;2023-08-20T03:41:53;15.82;;;8.82;;
24517;SDS011;12678;51.336;12.406;2023-08-20T03:44:19;11.85;;;7.57;;
24517;SDS011;12678;51.336;12.406;2023-08-20T03:46:44;15.02;;;9.10;;
24517;SDS011;12678;51.336;12.406;2023-08-20T03:49:10;14.18;;;8.40;;
24517;SDS011;12678;51.336;12.406;2023-08-20T03:51:36;13.98;;;8.98;;
24517;SDS011;12678;51.336;12.406;2023-08-20T03:54:01;14.65;;;8.77;;
24517;SDS011;12678;51.336;12.406;2023-08-20T03:56:27;17.15;;;8.60;;
24517;SDS011;12678;51.336;12.406;2023-08-20T03:58:53;16.27;;;8.68;;
24517;SDS011;12678;51.336;12.406;2023-08-20T04:01:20;21.65;;;10.07;;
24517;SDS011;12678;51.336;12.406;2023-08-20T04:03:46;16.50;;;9.77;;
24517;SDS011;12678;51.336;12.406;2023-08-20T04:06:12;22.08;;;10.25;;
24517;SDS011;12678;51.336;12.406;2023-08-20T04:08:38;15.93;;;9.60;;
24517;SDS011;12678;51.336;12.406;2023-08-20T04:11:03;17.65;;;9.88;;
24517;SDS011;12678;51.336;12.406;2023-08-20T04:13:29;18.45;;;10.88;;
24517;SDS011;12678;51.336;12.406;2023-08-20T04:15:55;18.73;;;10.90;;
24517;SDS011;12678;51.336;12.406;2023-08-20T04:18:21;15.55;;;9.80;;
24517;SDS011;12678;51.336;12.406;2023-08-20T04:20:47;16.00;;;10.15;;
24517;SDS011;12678;51.336;12.406;2023-08-20T04:23:14;20.08;;;11.13;;
24517;SDS011;12678;51.336;12.406;2023-08-20T04:25:40;14.73;;;9.60;;
24517;SDS011;12678;51.336;12.406;2023-08-20T04:28:06;17.67;;;11.30;;
24517;SDS011;12678;51.336;12.406;2023-08-20T04:30:31;19.88;;;11.32;;
24517;SDS011;12678;51.336;12.406;2023-08-20T04:32:59;18.17;;;11.60;;
24517;SDS011;12678;51.336;12.406;2023-08-20T04:35:24;19.48;;;11.93;;
24517;SDS011;12678;51.336;12.406;2023-08-20T04:37:50;22.05;;;11.70;;
24517;SDS011;12678;51.336;12.406;2023-08-20T04:40:16;18.95;;;12.07;;
24517;SDS011;12678;51.336;12.406;2023-08-20T04:42:41;21.40;;;13.25;;
24517;SDS011;12678;51.336;12.406;2023-08-20T04:45:07;22.33;;;14.38;;
24517;SDS011;12678;51.336;12.406;2023-08-20T04:47:33;29.98;;;14.77;;
24517;SDS011;12678;51.336;12.406;2023-08-20T04:49:59;22.60;;;13.38;;
24517;SDS011;12678;51.336;12.406;2023-08-20T04:52:24;39.95;;;14.23;;
24517;SDS011;12678;51.336;12.406;2023-08-20T04:54:50;23.42;;;13.38;;
24517;SDS011;12678;51.336;12.406;2023-08-20T04:57:15;23.23;;;13.05;;
24517;SDS011;12678;51.336;12.406;2023-08-20T04:59:41;21.55;;;12.75;;
24517;SDS011;12678;51.336;12.406;2023-08-20T05:02:10;23.33;;;13.32;;
24517;SDS011;12678;51.336;12.406;2023-08-20T05:04:36;25.75;;;13.90;;
24517;SDS011;12678;51.336;12.406;2023-08-20T05:07:02;28.00;;;14.85;;
24517;SDS011;12678;51.336;12.406;2023-08-20T05:09:28;21.08;;;12.82;;
24517;SDS011;12678;51.336;12.406;2023-08-20T05:11:54;22.90;;;13.38;;
24517;SDS011;12678;51.336;12.406;2023-08-20T05:14:19;21.88;;;13.13;;
24517;SDS011;12678;51.336;12.406;2023-08-20T05:16:45;23.98;;;13.07;;
24517;SDS011;12678;51.336;12.406;2023-08-20T05:19:10;29.55;;;14.43;;
24517;SDS011;12678;51.336;12.406;2023-08-20T05:21:36;26.10;;;13.32;;
24517;SDS011;12678;51.336;12.406;2023-08-20T05:24:01;21.73;;;13.85;;
24517;SDS011;12678;51.336;12.406;2023-08-20T05:26:28;27.75;;;14.82;;
24517;SDS011;12678;51.336;12.406;2023-08-20T05:28:53;24.40;;;13.55;;
24517;SDS011;12678;51.336;12.406;2023-08-20T05:31:19;21.20;;;13.27;;
24517;SDS011;12678;51.336;12.406;2023-08-20T05:33:44;21.20;;;11.93;;
24517;SDS011;12678;51.336;12.406;2023-08-20T05:36:10;26.77;;;14.57;;
24517;SDS011;12678;51.336;12.406;2023-08-20T05:38:35;25.00;;;13.38;;
24517;SDS011;12678;51.336;12.406;2023-08-20T05:41:01;26.05;;;14.25;;
24517;SDS011;12678;51.336;12.406;2023-08-20T05:43:27;21.80;;;13.38;;
24517;SDS011;12678;51.336;12.406;2023-08-20T05:45:52;27.02;;;13.85;;
24517;SDS011;12678;51.336;12.406;2023-08-20T05:48:18;26.08;;;12.73;;
24517;SDS011;12678;51.336;12.406;2023-08-20T05:50:43;21.73;;;13.02;;
24517;SDS011;12678;51.336;12.406;2023-08-20T05:53:09;29.05;;;14.18;;
24517;SDS011;12678;51.336;12.406;2023-08-20T05:55:35;24.58;;;13.90;;
24517;SDS011;12678;51.336;12.406;2023-08-20T05:58:00;22.80;;;12.80;;
24517;SDS011;12678;51.336;12.406;2023-08-20T06:00:26;20.60;;;12.38;;
24517;SDS011;12678;51.336;12.406;2023-08-20T06:02:51;21.70;;;13.32;;
24517;SDS011;12678;51.336;12.406;2023-08-20T06:05:17;23.80;;;14.18;;
24517;SDS011;12678;51.336;12.406;2023-08-20T06:07:42;23.55;;;13.52;;
24517;SDS011;12678;51.336;12.406;2023-08-20T06:10:08;24.42;;;13.32;;
24517;SDS011;12678;51.336;12.406;2023-08-20T06:12:34;26.83;;;14.18;;
24517;SDS011;12678;51.336;12.406;2023-08-20T06:14:59;23.35;;;13.85;;
24517;SDS011;12678;51.336;12.406;2023-08-20T06:17:25;22.30;;;12.35;;
24517;SDS011;12678;51.336;12.406;2023-08-20T06:19:50;20.08;;;12.68;;
24517;SDS011;12678;51.336;12.406;2023-08-20T06:22:16;24.55;;;12.20;;
24517;SDS011;12678;51.336;12.406;2023-08-20T06:24:41;21.50;;;13.00;;
24517;SDS011;12678;51.336;12.406;2023-08-20T06:27:07;20.83;;;12.20;;
24517;SDS011;12678;51.336;12.406;2023-08-20T06:29:32;21.35;;;12.40;;
24517;SDS011;12678;51.336;12.406;2023-08-20T06:31:58;19.70;;;11.32;;
24517;SDS011;12678;51.336;12.406;2023-08-20T06:34:23;24.02;;;11.65;;
24517;SDS011;12678;51.336;12.406;2023-08-20T06:36:49;18.85;;;11.52;;
24517;SDS011;12678;51.336;12.406;2023-08-20T06:39:14;17.00;;;10.63;;
24517;SDS011;12678;51.336;12.406;2023-08-20T06:41:40;19.38;;;11.55;;
24517;SDS011;12678;51.336;12.406;2023-08-20T06:44:06;15.32;;;10.25;;
24517;SDS011;12678;51.336;12.406;2023-08-20T06:46:32;17.35;;;10.27;;
24517;SDS011;12678;51.336;12.406;2023-08-20T06:48:57;20.60;;;10.45;;
24517;SDS011;12678;51.336;12.406;2023-08-20T06:51:23;28.95;;;11.57;;
24517;SDS011;12678;51.336;12.406;2023-08-20T06:53:50;19.25;;;10.45;;
24517;SDS011;12678;51.336;12.406;2023-08-20T06:56:15;16.25;;;9.95;;
24517;SDS011;12678;51.336;12.406;2023-08-20T06:58:41;17.50;;;10.30;;
24517;SDS011;12678;51.336;12.406;2023-08-20T07:01:07;18.60;;;10.02;;
24517;SDS011;12678;51.336;12.406;2023-08-20T07:03:37;17.65;;;9.23;;
24517;SDS011;12678;51.336;12.406;2023-08-20T07:06:07;12.27;;;8.18;;
24517;SDS011;12678;51.336;12.406;2023-08-20T07:08:39;16.67;;;10.25;;
24517;SDS011;12678;51.336;12.406;2023-08-20T07:11:05;17.55;;;10.93;;
24517;SDS011;12678;51.336;12.406;2023-08-20T07:13:31;17.35;;;10.07;;
24517;SDS011;12678;51.336;12.406;2023-08-20T07:15:57;17.13;;;10.02;;
24517;SDS011;12678;51.336;12.406;2023-08-20T07:18:23;18.08;;;10.00;;
24517;SDS011;12678;51.336;12.406;2023-08-20T07:20:49;15.82;;;10.23;;
24517;SDS011;12678;51.336;12.406;2023-08-20T07:23:16;18.58;;;10.48;;
24517;SDS011;12678;51.336;12.406;2023-08-20T07:25:41;17.92;;;9.75;;
24517;SDS011;12678;51.336;12.406;2023-08-20T07:28:07;15.15;;;8.82;;
24517;SDS011;12678;51.336;12.406;2023-08-20T07:30:34;13.25;;;8.68;;
24517;SDS011;12678;51.336;12.406;2023-08-20T07:33:01;17.73;;;9.32;;
24517;SDS011;12678;51.336;12.406;2023-08-20T07:35:27;14.90;;;9.60;;
24517;SDS011;12678;51.336;12.406;2023-08-20T07:37:53;15.65;;;9.05;;
24517;SDS011;12678;51.336;12.406;2023-08-20T07:40:18;15.13;;;8.35;;
24517;SDS011;12678;51.336;12.406;2023-08-20T07:42:44;15.18;;;9.75;;
24517;SDS011;12678;51.336;12.406;2023-08-20T07:45:10;15.60;;;7.97;;
24517;SDS011;12678;51.336;12.406;2023-08-20T07:47:36;14.90;;;7.78;;
24517;SDS011;12678;51.336;12.406;2023-08-20T07:50:03;11.43;;;7.40;;
24517;SDS011;12678;51.336;12.406;2023-08-20T07:52:29;13.55;;;6.97;;
24517;SDS011;12678;51.336;12.406;2023-08-20T07:54:55;11.50;;;7.43;;
24517;SDS011;12678;51.336;12.406;2023-08-20T07:57:21;10.27;;;7.00;;
24517;SDS011;12678;51.336;12.406;2023-08-20T07:59:48;11.55;;;6.93;;
24517;SDS011;12678;51.336;12.406;2023-08-20T08:02:14;8.25;;;5.95;;
24517;SDS011;12678;51.336;12.406;2023-08-20T08:04:40;8.73;;;6.00;;
24517;SDS011;12678;51.336;12.406;2023-08-20T08:07:11;8.00;;;5.85;;
24517;SDS011;12678;51.336;12.406;2023-08-20T08:09:36;10.73;;;6.85;;
24517;SDS011;12678;51.336;12.406;2023-08-20T08:12:02;9.75;;;6.00;;
24517;SDS011;12678;51.336;12.406;2023-08-20T08:14:29;10.10;;;6.15;;
24517;SDS011;12678;51.336;12.406;2023-08-20T08:16:55;13.35;;;5.80;;
24517;SDS011;12678;51.336;12.406;2023-08-20T08:19:22;8.40;;;5.85;;
24517;SDS011;12678;51.336;12.406;2023-08-20T08:21:47;9.15;;;5.43;;
24517;SDS011;12678;51.336;12.406;2023-08-20T08:24:14;8.30;;;5.57;;
24517;SDS011;12678;51.336;12.406;2023-08-20T08:26:40;7.88;;;5.30;;
24517;SDS011;12678;51.336;12.406;2023-08-20T08:29:06;8.57;;;5.45;;
24517;SDS011;12678;51.336;12.406;2023-08-20T08:31:32;7.75;;;5.38;;
24517;SDS011;12678;51.336;12.406;2023-08-20T08:33:59;11.25;;;5.07;;
24517;SDS011;12678;51.336;12.406;2023-08-20T08:36:24;9.65;;;4.88;;
24517;SDS011;12678;51.336;12.406;2023-08-20T08:38:51;7.03;;;4.93;;
24517;SDS011;12678;51.336;12.406;2023-08-20T08:41:17;6.47;;;4.82;;
24517;SDS011;12678;51.336;12.406;2023-08-20T08:43:43;7.50;;;4.30;;
24517;SDS011;12678;51.336;12.406;2023-08-20T08:46:12;7.25;;;4.65;;
24517;SDS011;12678;51.336;12.406;2023-08-20T08:48:39;5.03;;;3.50;;
24517;SDS011;12678;51.336;12.406;2023-08-20T08:51:06;5.20;;;3.50;;
24517;SDS011;12678;51.336;12.406;2023-08-20T08:53:32;4.95;;;3.40;;
24517;SDS011;12678;51.336;12.406;2023-08-20T08:55:59;8.25;;;4.32;;
24517;SDS011;12678;51.336;12.406;2023-08-20T08:58:25;7.22;;;3.67;;
24517;SDS011;12678;51.336;12.406;2023-08-20T09:00:51;7.15;;;3.75;;
24517;SDS011;12678;51.336;12.406;2023-08-20T09:03:17;5.22;;;3.75;;
24517;SDS011;12678;51.336;12.406;2023-08-20T09:05:46;5.20;;;4.10;;
24517;SDS011;12678;51.336;12.406;2023-08-20T09:08:30;5.13;;;4.10;;
24517;SDS011;12678;51.336;12.406;2023-08-20T09:10:58;8.50;;;4.25;;
24517;SDS011;12678;51.336;12.406;2023-08-20T09:13:24;6.15;;;4.18;;
24517;SDS011;12678;51.336;12.406;2023-08-20T09:16:11;10.35;;;4.97;;
24517;SDS011;12678;51.336;12.406;2023-08-20T09:18:37;7.00;;;4.30;;
24517;SDS011;12678;51.336;12.406;2023-08-20T09:21:08;7.60;;;5.10;;
24517;SDS011;12678;51.336;12.406;2023-08-20T09:23:34;6.47;;;4.53;;
24517;SDS011;12678;51.336;12.406;2023-08-20T09:26:03;13.80;;;4.65;;
24517;SDS011;12678;51.336;12.406;2023-08-20T09:28:54;9.93;;;5.22;;
24517;SDS011;12678;51.336;12.406;2023-08-20T09:31:19;12.25;;;5.35;;
24517;SDS011;12678;51.336;12.406;2023-08-20T09:33:49;6.82;;;4.70;;
24517;SDS011;12678;51.336;12.406;2023-08-20T09:36:18;7.75;;;4.60;;
24517;SDS011;12678;51.336;12.406;2023-08-20T09:38:54;7.70;;;4.43;;
24517;SDS011;12678;51.336;12.406;2023-08-20T09:41:19;9.05;;;4.75;;
24517;SDS011;12678;51.336;12.406;2023-08-20T09:43:47;6.63;;;5.00;;
24517;SDS011;12678;51.336;12.406;2023-08-20T09:46:18;6.93;;;4.47;;
24517;SDS011;12678;51.336;12.406;2023-08-20T09:48:45;7.15;;;4.53;;
24517;SDS011;12678;51.336;12.406;2023-08-20T09:51:13;9.05;;;5.05;;
24517;SDS011;12678;51.336;12.406;2023-08-20T09:53:45;8.48;;;4.97;;
24517;SDS011;12678;51.336;12.406;2023-08-20T09:56:38;6.07;;;4.55;;
24517;SDS011;12678;51.336;12.406;2023-08-20T09:59:03;7.97;;;5.13;;
24517;SDS011;12678;51.336;12.406;2023-08-20T10:01:29;6.60;;;4.72;;
24517;SDS011;12678;51.336;12.406;2023-08-20T10:03:55;7.63;;;4.80;;
24517;SDS011;12678;51.336;12.406;2023-08-20T10:06:21;7.60;;;4.55;;
24517;SDS011;12678;51.336;12.406;2023-08-20T10:08:48;7.57;;;4.85;;
24517;SDS011;12678;51.336;12.406;2023-08-20T10:11:16;8.15;;;5.82;;
24517;SDS011;12678;51.336;12.406;2023-08-20T10:13:42;12.38;;;4.85;;
24517;SDS011;12678;51.336;12.406;2023-08-20T10:16:08;8.55;;;4.93;;
24517;SDS011;12678;51.336;12.406;2023-08-20T10:18:36;6.25;;;4.82;;
24517;SDS011;12678;51.336;12.406;2023-08-20T10:21:02;7.60;;;4.82;;
24517;SDS011;12678;51.336;12.406;2023-08-20T10:23:29;8.80;;;5.03;;
24517;SDS011;12678;51.336;12.406;2023-08-20T10:25:55;7.95;;;4.90;;
24517;SDS011;12678;51.336;12.406;2023-08-20T10:28:33;8.38;;;5.05;;
24517;SDS011;12678;51.336;12.406;2023-08-20T10:31:05;7.97;;;4.65;;
24517;SDS011;12678;51.336;12.406;2023-08-20T10:33:35;6.28;;;4.53;;
24517;SDS011;12678;51.336;12.406;2023-08-20T10:36:15;6.30;;;4.43;;
24517;SDS011;12678;51.336;12.406;2023-08-20T10:38:48;7.22;;;4.53;;
24517;SDS011;12678;51.336;12.406;2023-08-20T10:41:15;7.07;;;4.55;;
24517;SDS011;12678;51.336;12.406;2023-08-20T10:43:48;7.03;;;4.60;;
24517;SDS011;12678;51.336;12.406;2023-08-20T10:46:15;7.30;;;4.45;;
24517;SDS011;12678;51.336;12.406;2023-08-20T10:48:43;6.93;;;4.32;;
24517;SDS011;12678;51.336;12.406;2023-08-20T10:51:12;8.00;;;4.80;;
24517;SDS011;12678;51.336;12.406;2023-08-20T10:53:39;9.43;;;4.55;;
24517;SDS011;12678;51.336;12.406;2023-08-20T10:56:07;6.05;;;4.32;;
24517;SDS011;12678;51.336;12.406;2023-08-20T10:58:34;5.78;;;4.38;;
24517;SDS011;12678;51.336;12.406;2023-08-20T11:03:46;6.80;;;4.40;;
24517;SDS011;12678;51.336;12.406;2023-08-20T11:06:13;6.65;;;4.50;;
24517;SDS011;12678;51.336;12.406;2023-08-20T11:08:39;6.10;;;4.85;;
24517;SDS011;12678;51.336;12.406;2023-08-20T11:11:07;6.35;;;4.43;;
24517;SDS011;12678;51.336;12.406;2023-08-20T11:13:33;5.82;;;4.22;;
24517;SDS011;12678;51.336;12.406;2023-08-20T11:16:01;9.52;;;4.68;;
24517;SDS011;12678;51.336;12.406;2023-08-20T11:18:28;8.32;;;4.50;;
24517;SDS011;12678;51.336;12.406;2023-08-20T11:20:54;6.32;;;4.05;;
24517;SDS011;12678;51.336;12.406;2023-08-20T11:23:21;7.65;;;4.78;;
24517;SDS011;12678;51.336;12.406;2023-08-20T11:25:47;7.22;;;4.40;;
24517;SDS011;12678;51.336;12.406;2023-08-20T11:28:12;5.40;;;4.22;;
24517;SDS011;12678;51.336;12.406;2023-08-20T11:30:38;7.60;;;4.40;;
24517;SDS011;12678;51.336;12.406;2023-08-20T11:33:04;6.28;;;4.30;;
24517;SDS011;12678;51.336;12.406;2023-08-20T11:35:30;9.68;;;4.40;;
24517;SDS011;12678;51.336;12.406;2023-08-20T11:37:57;5.72;;;4.43;;
24517;SDS011;12678;51.336;12.406;2023-08-20T11:40:23;7.47;;;4.78;;
24517;SDS011;12678;51.336;12.406;2023-08-20T11:42:48;6.90;;;4.15;;
24517;SDS011;12678;51.336;12.406;2023-08-20T11:45:14;6.20;;;4.53;;
24517;SDS011;12678;51.336;12.406;2023-08-20T11:47:40;6.97;;;4.60;;
24517;SDS011;12678;51.336;12.406;2023-08-20T11:50:07;5.90;;;4.53;;
24517;SDS011;12678;51.336;12.406;2023-08-20T11:52:34;9.48;;;4.50;;
24517;SDS011;12678;51.336;12.406;2023-08-20T11:55:01;7.07;;;5.03;;
24517;SDS011;12678;51.336;12.406;2023-08-20T11:57:28;7.03;;;5.38;;
24517;SDS011;12678;51.336;12.406;2023-08-20T11:59:55;8.35;;;5.60;;
24517;SDS011;12678;51.336;12.406;2023-08-20T12:02:24;7.68;;;5.30;;
24517;SDS011;12678;51.336;12.406;2023-08-20T12:04:51;11.82;;;5.13;;
24517;SDS011;12678;51.336;12.406;2023-08-20T12:07:17;6.43;;;4.95;;
24517;SDS011;12678;51.336;12.406;2023-08-20T12:09:42;5.32;;;4.18;;
24517;SDS011;12678;51.336;12.406;2023-08-20T12:12:08;6.70;;;5.15;;
24517;SDS011;12678;51.336;12.406;2023-08-20T12:14:34;7.82;;;4.53;;
24517;SDS011;12678;51.336;12.406;2023-08-20T12:17:01;6.70;;;5.00;;
24517;SDS011;12678;51.336;12.406;2023-08-20T12:19:28;9.27;;;5.40;;
24517;SDS011;12678;51.336;12.406;2023-08-20T12:21:54;7.80;;;4.65;;
24517;SDS011;12678;51.336;12.406;2023-08-20T12:24:19;8.00;;;4.68;;
24517;SDS011;12678;51.336;12.406;2023-08-20T12:26:45;9.82;;;5.13;;
24517;SDS011;12678;51.336;12.406;2023-08-20T12:29:11;6.80;;;4.60;;
24517;SDS011;12678;51.336;12.406;2023-08-20T12:31:37;8.23;;;5.28;;
24517;SDS011;12678;51.336;12.406;2023-08-20T12:34:03;7.45;;;4.90;;
24517;SDS011;12678;51.336;12.406;2023-08-20T12:36:29;7.75;;;4.88;;
24517;SDS011;12678;51.336;12.406;2023-08-20T12:38:55;8.38;;;4.88;;
24517;SDS011;12678;51.336;12.406;2023-08-20T12:41:21;5.10;;;4.32;;
24517;SDS011;12678;51.336;12.406;2023-08-20T12:43:48;7.97;;;5.00;;
24517;SDS011;12678;51.336;12.406;2023-08-20T12:46:14;5.90;;;4.57;;
24517;SDS011;12678;51.336;12.406;2023-08-20T12:48:40;7.18;;;4.85;;
24517;SDS011;12678;51.336;12.406;2023-08-20T12:51:05;7.88;;;4.38;;
24517;SDS011;12678;51.336;12.406;2023-08-20T12:53:32;7.18;;;4.30;;
24517;SDS011;12678;51.336;12.406;2023-08-20T12:55:57;9.95;;;4.88;;
24517;SDS011;12678;51.336;12.406;2023-08-20T12:58:23;6.72;;;4.68;;
24517;SDS011;12678;51.336;12.406;2023-08-20T13:00:50;7.47;;;5.03;;
24517;SDS011;12678;51.336;12.406;2023-08-20T13:03:16;5.80;;;4.50;;
24517;SDS011;12678;51.336;12.406;2023-08-20T13:05:43;8.85;;;4.43;;
24517;SDS011;12678;51.336;12.406;2023-08-20T13:08:09;6.82;;;4.18;;
24517;SDS011;12678;51.336;12.406;2023-08-20T13:10:37;7.13;;;4.22;;
24517;SDS011;12678;51.336;12.406;2023-08-20T13:13:06;7.93;;;4.95;;
24517;SDS011;12678;51.336;12.406;2023-08-20T13:15:35;7.30;;;4.68;;
24517;SDS011;12678;51.336;12.406;2023-08-20T13:18:02;6.63;;;4.53;;
24517;SDS011;12678;51.336;12.406;2023-08-20T13:20:28;5.18;;;4.20;;
24517;SDS011;12678;51.336;12.406;2023-08-20T13:22:54;7.65;;;5.05;;
24517;SDS011;12678;51.336;12.406;2023-08-20T13:25:20;11.35;;;4.50;;
24517;SDS011;12678;51.336;12.406;2023-08-20T13:27:49;7.55;;;4.03;;
24517;SDS011;12678;51.336;12.406;2023-08-20T13:30:14;6.43;;;4.55;;
24517;SDS011;12678;51.336;12.406;2023-08-20T13:32:40;6.75;;;4.90;;
24517;SDS011;12678;51.336;12.406;2023-08-20T13:35:06;6.60;;;4.78;;
24517;SDS011;12678;51.336;12.406;2023-08-20T13:37:33;7.60;;;5.35;;
24517;SDS011;12678;51.336;12.406;2023-08-20T13:39:59;8.45;;;5.13;;
24517;SDS011;12678;51.336;12.406;2023-08-20T13:42:25;5.70;;;4.53;;
24517;SDS011;12678;51.336;12.406;2023-08-20T13:44:51;5.32;;;4.47;;
24517;SDS011;12678;51.336;12.406;2023-08-20T13:47:17;8.13;;;5.15;;
24517;SDS011;12678;51.336;12.406;2023-08-20T13:49:43;7.88;;;4.72;;
24517;SDS011;12678;51.336;12.406;2023-08-20T13:52:09;5.47;;;4.55;;
24517;SDS011;12678;51.336;12.406;2023-08-20T13:54:35;7.45;;;5.15;;
24517;SDS011;12678;51.336;12.406;2023-08-20T13:57:01;8.55;;;4.78;;
24517;SDS011;12678;51.336;12.406;2023-08-20T13:59:28;7.32;;;4.55;;
24517;SDS011;12678;51.336;12.406;2023-08-20T14:01:54;8.40;;;4.75;;
24517;SDS011;12678;51.336;12.406;2023-08-20T14:04:20;6.53;;;4.78;;
24517;SDS011;12678;51.336;12.406;2023-08-20T14:06:45;10.25;;;5.07;;
24517;SDS011;12678;51.336;12.406;2023-08-20T14:09:11;6.25;;;4.82;;
24517;SDS011;12678;51.336;12.406;2023-08-20T14:11:36;9.70;;;5.07;;
24517;SDS011;12678;51.336;12.406;2023-08-20T14:14:02;6.80;;;4.30;;
24517;SDS011;12678;51.336;12.406;2023-08-20T14:16:29;6.85;;;4.82;;
24517;SDS011;12678;51.336;12.406;2023-08-20T14:18:54;5.70;;;4.57;;
24517;SDS011;12678;51.336;12.406;2023-08-20T14:21:21;6.68;;;4.85;;
24517;SDS011;12678;51.336;12.406;2023-08-20T14:23:47;5.97;;;4.53;;
24517;SDS011;12678;51.336;12.406;2023-08-20T14:26:12;10.85;;;4.85;;
24517;SDS011;12678;51.336;12.406;2023-08-20T14:28:38;7.47;;;4.80;;
24517;SDS011;12678;51.336;12.406;2023-08-20T14:31:04;7.50;;;5.47;;
24517;SDS011;12678;51.336;12.406;2023-08-20T14:33:30;6.40;;;4.68;;